Time;durP1;ratioP1;P1;durP2;ratioP2;P2;SDS_P1;SDS_P2;PMS_P1;PMS_P2;Temp;Humidity;BMP_temperature;BMP_pressure;BME280_temperature;BME280_humidity;BME280_pressure;Samples;Min_cycle;Max_cycle;Signal;HPM_P1;HPM_P2
2023/08/27 00:00:36;;;;;;;10.57;7.87;;;;;;;24.60;100.00;100902.75;2089370;28;20263;-66
2023/08/27 00:01:36;;;;;;;11.90;8.30;;;;;;;24.61;100.00;100914.88;2089560;28;20173;-66
2023/08/27 00:02:36;;;;;;;13.47;8.90;;;;;;;24.58;100.00;100913.84;2089761;28;20172;-66
2023/08/27 00:03:37;;;;;;;9.83;8.83;;;;;;;24.57;100.00;100931.34;2097632;28;20608;-66
2023/08/27 00:04:38;;;;;;;11.77;9.10;;;;;;;24.15;100.00;100853.22;2097781;28;20332;-66
2023/08/27 00:05:42;;;;;;;12.07;8.70;;;;;;;24.09;100.00;100863.00;2091902;28;20282;-66
2023/08/27 00:06:43;;;;;;;9.93;8.40;;;;;;;24.48;100.00;100908.97;2089394;28;20724;-66
2023/08/27 00:07:43;;;;;;;13.10;9.00;;;;;;;24.44;100.00;100914.13;2089076;28;20586;-66
2023/08/27 00:08:43;;;;;;;11.60;8.57;;;;;;;24.43;100.00;100915.41;2092244;28;20203;-66
2023/08/27 00:09:44;;;;;;;11.10;8.53;;;;;;;24.41;100.00;100915.94;2089596;28;20179;-66
2023/08/27 00:10:44;;;;;;;10.23;8.50;;;;;;;24.38;100.00;100910.53;2089608;28;20255;-66
2023/08/27 00:11:45;;;;;;;9.27;8.27;;;;;;;23.75;100.00;100825.50;2097458;28;20167;-66
2023/08/27 00:12:45;;;;;;;10.93;8.47;;;;;;;24.28;100.00;100917.78;2090470;28;20275;-67
2023/08/27 00:13:45;;;;;;;9.57;8.67;;;;;;;24.23;100.00;100910.84;2089705;28;20572;-66
2023/08/27 00:14:46;;;;;;;11.43;8.90;;;;;;;23.96;100.00;100879.78;2089008;28;20321;-66
2023/08/27 00:15:46;;;;;;;10.77;8.70;;;;;;;24.28;100.00;100923.44;2093110;28;20187;-66
2023/08/27 00:16:47;;;;;;;12.27;8.97;;;;;;;24.26;100.00;100921.13;2095038;28;20224;-66
2023/08/27 00:17:47;;;;;;;9.57;8.60;;;;;;;24.27;100.00;100910.59;2089750;28;20274;-66
2023/08/27 00:18:48;;;;;;;10.20;8.77;;;;;;;23.62;100.00;100813.19;2097043;28;20198;-66
2023/08/27 00:19:48;;;;;;;9.63;8.63;;;;;;;24.25;100.00;100913.94;2089699;28;20317;-66
2023/08/27 00:20:49;;;;;;;9.23;8.30;;;;;;;24.26;100.00;100911.88;2089467;28;20176;-66
2023/08/27 00:21:51;;;;;;;11.27;8.67;;;;;;;24.28;100.00;100909.28;2089250;28;20188;-67
2023/08/27 00:22:52;;;;;;;9.80;8.27;;;;;;;24.31;100.00;100896.94;2089791;28;20241;-67
2023/08/27 00:23:52;;;;;;;11.63;8.20;;;;;;;24.31;100.00;100906.19;2089578;28;20218;-66
2023/08/27 00:24:52;;;;;;;10.90;8.20;;;;;;;24.31;100.00;100902.59;2089148;28;20657;-66
2023/08/27 00:25:53;;;;;;;12.47;8.90;;;;;;;24.32;100.00;100904.13;2088955;28;20259;-66
2023/08/27 00:26:53;;;;;;;11.43;8.40;;;;;;;23.96;100.00;100845.81;2089049;28;20199;-66
2023/08/27 00:27:54;;;;;;;10.00;8.47;;;;;;;24.33;100.00;100909.28;2089065;28;20169;-66
2023/08/27 00:28:55;;;;;;;10.20;8.17;;;;;;;24.30;100.00;100904.66;2089214;28;20188;-66
2023/08/27 00:29:56;;;;;;;10.83;8.10;;;;;;;24.28;100.00;100907.25;2089555;28;20176;-66
2023/08/27 00:31:01;;;;;;;11.57;7.93;;;;;;;24.20;100.00;100883.56;2089169;28;20192;-66
2023/08/27 00:32:02;;;;;;;10.60;8.63;;;;;;;24.30;100.00;100903.91;2093664;28;20278;-66
2023/08/27 00:33:03;;;;;;;10.40;8.30;;;;;;;24.30;100.00;100915.97;2097097;28;20684;-66
2023/08/27 00:34:03;;;;;;;11.43;8.40;;;;;;;24.28;100.00;100912.91;2094628;28;20654;-67
2023/08/27 00:35:04;;;;;;;9.43;7.90;;;;;;;24.29;100.00;100914.44;2094946;28;20595;-66
2023/08/27 00:36:05;;;;;;;10.40;8.50;;;;;;;24.32;100.00;100904.13;2089091;28;20176;-66
2023/08/27 00:37:05;;;;;;;10.07;8.70;;;;;;;24.32;100.00;100909.78;2089518;28;20685;-66
2023/08/27 00:38:06;;;;;;;10.63;8.57;;;;;;;24.30;100.00;100909.56;2093043;28;20270;-66
2023/08/27 00:39:06;;;;;;;9.57;8.57;;;;;;;24.34;100.00;100913.66;2096927;28;20187;-67
2023/08/27 00:40:07;;;;;;;9.87;8.30;;;;;;;24.31;100.00;100911.84;2091855;28;20278;-66
2023/08/27 00:41:07;;;;;;;9.30;8.03;;;;;;;24.31;100.00;100920.34;2093070;28;20271;-66
2023/08/27 00:42:08;;;;;;;11.07;8.30;;;;;;;24.30;100.00;100918.81;2097401;28;20192;-66
2023/08/27 00:43:08;;;;;;;12.83;8.30;;;;;;;24.33;100.00;100917.78;2097561;28;20247;-66
2023/08/27 00:44:09;;;;;;;9.23;8.13;;;;;;;24.36;100.00;100919.56;2096426;28;20202;-66
2023/08/27 00:45:10;;;;;;;11.43;8.37;;;;;;;24.40;100.00;100916.44;2089058;28;20528;-67
2023/08/27 00:46:11;;;;;;;9.70;8.47;;;;;;;24.36;100.00;100910.31;2097190;28;20593;-66
2023/08/27 00:47:12;;;;;;;10.20;8.03;;;;;;;24.45;100.00;100921.31;2089985;28;20188;-66
2023/08/27 00:48:12;;;;;;;9.10;7.97;;;;;;;24.33;100.00;100902.84;2095923;28;20641;-66
2023/08/27 00:49:13;;;;;;;8.70;7.80;;;;;;;24.47;100.00;100921.59;2092010;28;20667;-66
2023/08/27 00:50:14;;;;;;;11.40;7.90;;;;;;;24.44;100.00;100917.72;2089316;28;20222;-66
2023/08/27 00:51:15;;;;;;;12.40;8.80;;;;;;;24.50;100.00;100926.19;2089326;28;20230;-66
2023/08/27 00:52:17;;;;;;;10.07;8.30;;;;;;;23.82;100.00;100816.50;2088697;28;20678;-66
2023/08/27 00:53:18;;;;;;;9.87;8.70;;;;;;;24.54;100.00;100930.31;2089777;28;20341;-66
2023/08/27 00:54:19;;;;;;;14.53;8.00;;;;;;;24.56;100.00;100927.72;2097840;28;20179;-66
2023/08/27 00:55:19;;;;;;;10.97;8.20;;;;;;;23.87;100.00;100820.59;2088279;28;20192;-66
2023/08/27 00:56:20;;;;;;;10.33;8.33;;;;;;;24.57;100.00;100925.66;2096121;28;20841;-66
2023/08/27 00:57:21;;;;;;;10.00;7.93;;;;;;;24.45;100.00;100932.66;2092088;28;20287;-67
2023/08/27 00:58:21;;;;;;;11.20;8.27;;;;;;;24.56;100.00;100932.63;2093656;28;20196;-66
2023/08/27 00:59:21;;;;;;;8.57;7.77;;;;;;;24.53;100.00;100930.81;2097159;28;20198;-66
2023/08/27 01:00:23;;;;;;;11.37;7.90;;;;;;;24.52;100.00;100932.88;2094993;28;20203;-66
2023/08/27 01:01:23;;;;;;;12.07;8.73;;;;;;;24.51;100.00;100948.34;2090153;28;20187;-66
2023/08/27 01:02:24;;;;;;;8.90;8.00;;;;;;;24.51;100.00;100924.94;2097267;28;20195;-66
2023/08/27 01:03:25;;;;;;;10.40;8.30;;;;;;;24.52;100.00;100930.03;2088977;28;20191;-66
2023/08/27 01:04:26;;;;;;;10.97;8.50;;;;;;;24.52;100.00;100932.88;2096345;28;20214;-67
2023/08/27 01:05:27;;;;;;;11.47;8.43;;;;;;;24.07;100.00;100869.22;2090711;28;20219;-66
2023/08/27 01:06:28;;;;;;;10.07;8.60;;;;;;;24.56;100.00;100926.97;2089002;28;20199;-66
2023/08/27 01:07:35;;;;;;;10.07;8.10;;;;;;;24.49;100.00;100913.31;2089000;28;20181;-66
2023/08/27 01:08:44;;;;;;;11.67;8.83;;;;;;;24.60;100.00;100924.63;2089286;28;20184;-66
2023/08/27 01:09:50;;;;;;;9.30;8.20;;;;;;;24.50;100.00;100929.81;2088849;28;20267;-66
2023/08/27 01:11:02;;;;;;;11.47;8.70;;;;;;;24.63;100.00;100926.44;2089014;28;20658;-67
2023/08/27 01:12:31;;;;;;;10.47;8.50;;;;;;;24.62;100.00;100928.50;2092521;28;20184;-66
2023/08/27 01:13:40;;;;;;;9.10;8.13;;;;;;;24.64;100.00;100936.47;2091008;28;20670;-66
2023/08/27 01:14:46;;;;;;;13.57;8.30;;;;;;;24.61;100.00;100929.78;2088665;28;20565;-66
2023/08/27 01:15:54;;;;;;;11.23;8.40;;;;;;;24.58;100.00;100930.84;2088824;28;20188;-66
2023/08/27 01:16:58;;;;;;;8.93;8.10;;;;;;;24.54;100.00;100933.16;2089278;28;20188;-66
2023/08/27 01:17:59;;;;;;;9.53;8.30;;;;;;;24.52;100.00;100932.88;2089104;28;20184;-66
2023/08/27 01:19:01;;;;;;;12.13;8.87;;;;;;;24.46;100.00;100931.38;2092952;28;20183;-66
2023/08/27 01:20:05;;;;;;;9.43;8.07;;;;;;;24.53;100.00;100928.00;2094205;28;20266;-66
2023/08/27 01:21:25;;;;;;;10.63;8.70;;;;;;;24.45;100.00;100921.31;2088406;28;20226;-67
2023/08/27 01:22:25;;;;;;;10.13;9.10;;;;;;;24.57;100.00;100932.09;2092595;28;20248;-66
2023/08/27 01:23:26;;;;;;;11.67;8.27;;;;;;;24.59;100.00;100932.38;2096962;28;20183;-66
2023/08/27 01:24:26;;;;;;;9.73;8.07;;;;;;;24.60;100.00;100925.41;2095748;28;20263;-66
2023/08/27 01:25:47;;;;;;;10.90;8.20;;;;;;;24.62;100.00;100922.06;2088143;28;20177;-66
2023/08/27 01:26:53;;;;;;;11.70;7.93;;;;;;;24.65;100.00;100924.63;2088787;28;20162;-66
2023/08/27 01:28:04;;;;;;;9.17;8.20;;;;;;;24.65;100.00;100926.69;2089007;28;20218;-66
2023/08/27 01:29:13;;;;;;;12.13;8.77;;;;;;;24.65;100.00;100935.16;2089929;28;20204;-66
2023/08/27 01:30:55;;;;;;;11.37;8.23;;;;;;;24.62;100.00;100933.41;2095760;28;20172;-66
2023/08/27 01:32:15;;;;;;;9.80;8.80;;;;;;;24.55;100.00;100928.22;2088349;28;20265;-66
2023/08/27 01:33:23;;;;;;;13.57;8.70;;;;;;;24.54;100.00;100921.81;2088959;28;20257;-66
2023/08/27 01:34:24;;;;;;;11.40;8.00;;;;;;;24.54;100.00;100935.97;2089084;28;20230;-66
2023/08/27 01:35:25;;;;;;;14.13;8.70;;;;;;;24.53;100.00;100933.66;2088183;28;20196;-66
2023/08/27 01:36:26;;;;;;;17.10;8.60;;;;;;;23.79;100.00;100825.25;2088916;28;20176;-66
2023/08/27 01:37:27;;;;;;;16.63;8.40;;;;;;;24.51;100.00;100928.50;2093780;28;20191;-66
2023/08/27 01:38:27;;;;;;;11.17;8.50;;;;;;;24.47;100.00;100930.09;2096685;28;20184;-66
2023/08/27 01:39:28;;;;;;;11.90;8.63;;;;;;;24.10;100.00;100870.97;2094905;28;20172;-66
2023/08/27 01:40:28;;;;;;;11.40;8.10;;;;;;;24.49;100.00;100931.09;2088925;28;20180;-66
2023/08/27 01:41:29;;;;;;;12.43;8.67;;;;;;;24.49;100.00;100928.28;2088311;28;20188;-66
2023/08/27 01:42:29;;;;;;;17.63;9.47;;;;;;;24.51;100.00;100930.59;2088511;28;20255;-66
2023/08/27 01:43:29;;;;;;;11.57;8.63;;;;;;;24.51;100.00;100928.50;2096269;28;20186;-66
2023/08/27 01:44:30;;;;;;;15.90;9.23;;;;;;;24.50;100.00;100929.03;2097428;28;20196;-66
2023/08/27 01:45:31;;;;;;;13.10;8.20;;;;;;;24.49;100.00;100927.50;2091583;28;20668;-66
2023/08/27 01:46:31;;;;;;;11.43;8.03;;;;;;;24.45;100.00;100929.81;2088765;28;20662;-66
2023/08/27 01:47:32;;;;;;;10.47;7.57;;;;;;;24.45;100.00;100935.47;2091707;28;20199;-66
2023/08/27 01:48:32;;;;;;;8.40;7.50;;;;;;;24.45;100.00;100935.47;2096493;28;20262;-66
2023/08/27 01:49:33;;;;;;;10.07;8.20;;;;;;;24.42;100.00;100933.72;2096003;28;20195;-66
2023/08/27 01:50:34;;;;;;;9.77;8.77;;;;;;;24.38;100.00;100927.53;2089120;28;20187;-66
2023/08/27 01:51:34;;;;;;;10.00;8.30;;;;;;;24.30;100.00;100918.81;2088511;28;20224;-67
2023/08/27 01:52:35;;;;;;;12.07;8.77;;;;;;;24.33;100.00;100940.44;2087734;28;20195;-66
2023/08/27 01:53:36;;;;;;;9.77;7.93;;;;;;;24.33;100.00;100931.94;2089063;28;20208;-66
2023/08/27 01:54:37;;;;;;;8.83;7.93;;;;;;;24.30;100.00;100929.38;2088799;28;20188;-66
2023/08/27 01:55:38;;;;;;;9.23;8.30;;;;;;;24.29;100.00;100925.78;2088393;28;20214;-66
2023/08/27 01:56:38;;;;;;;9.17;8.23;;;;;;;24.29;100.00;100933.47;2088784;28;20226;-66
2023/08/27 01:57:39;;;;;;;9.87;8.63;;;;;;;24.24;100.00;100935.03;2088928;28;20202;-67
2023/08/27 01:58:40;;;;;;;10.73;8.63;;;;;;;24.20;100.00;100930.97;2089054;28;20172;-66
2023/08/27 01:59:41;;;;;;;10.93;8.60;;;;;;;23.62;100.00;100842.28;2097379;28;20255;-66
2023/08/27 02:00:42;;;;;;;9.37;8.37;;;;;;;24.21;100.00;100938.16;2097296;28;20198;-66
2023/08/27 02:01:43;;;;;;;11.07;8.83;;;;;;;24.18;100.00;100928.63;2090659;28;20748;-66
2023/08/27 02:02:44;;;;;;;9.73;8.30;;;;;;;23.30;100.00;100792.97;2088241;28;20329;-66
2023/08/27 02:03:45;;;;;;;11.10;8.67;;;;;;;24.16;100.00;100931.19;2088850;28;20661;-66
2023/08/27 02:04:45;;;;;;;9.73;8.77;;;;;;;24.13;100.00;100932.25;2088463;28;20575;-66
2023/08/27 02:05:47;;;;;;;11.37;9.03;;;;;;;24.14;100.00;100927.34;2088223;28;20187;-66
2023/08/27 02:06:48;;;;;;;10.37;8.87;;;;;;;24.08;100.00;100927.38;2087927;28;20186;-66
2023/08/27 02:07:48;;;;;;;9.27;8.30;;;;;;;24.07;100.00;100933.53;2089087;28;20711;-66
2023/08/27 02:08:48;;;;;;;9.83;8.50;;;;;;;24.07;100.00;100927.88;2088879;28;20536;-66
2023/08/27 02:09:49;;;;;;;13.80;9.10;;;;;;;24.05;100.00;100928.41;2089147;28;20704;-66
2023/08/27 02:10:49;;;;;;;12.73;8.20;;;;;;;24.04;100.00;100924.03;2088659;28;20192;-66
2023/08/27 02:11:50;;;;;;;11.93;9.27;;;;;;;24.05;100.00;100927.66;2088374;28;20263;-66
2023/08/27 02:12:50;;;;;;;11.33;8.83;;;;;;;24.03;100.00;100928.16;2088115;28;20200;-66
2023/08/27 02:13:51;;;;;;;11.73;9.03;;;;;;;23.96;100.00;100922.25;2088955;28;20184;-66
2023/08/27 02:14:51;;;;;;;12.17;9.37;;;;;;;23.52;100.00;100869.28;2088313;28;20228;-66
2023/08/27 02:15:52;;;;;;;9.43;8.43;;;;;;;23.79;100.00;100908.09;2088622;28;20185;-67
2023/08/27 02:16:52;;;;;;;10.97;8.40;;;;;;;23.85;100.00;100925.06;2088844;28;20175;-66
2023/08/27 02:17:52;;;;;;;12.13;8.30;;;;;;;23.79;100.00;100922.25;2088960;28;20212;-66
2023/08/27 02:18:53;;;;;;;11.40;8.73;;;;;;;23.74;100.00;100917.34;2088688;28;20187;-66
2023/08/27 02:19:53;;;;;;;9.73;8.53;;;;;;;23.76;100.00;100923.28;2088767;28;20184;-66
2023/08/27 02:20:56;;;;;;;12.03;9.33;;;;;;;23.76;100.00;100920.47;2088726;28;20249;-66
2023/08/27 02:21:56;;;;;;;10.40;8.57;;;;;;;23.72;100.00;100916.31;2091065;28;20168;-66
2023/08/27 02:22:57;;;;;;;9.20;8.30;;;;;;;23.70;100.00;100922.50;2095203;28;20237;-66
2023/08/27 02:23:58;;;;;;;9.57;8.30;;;;;;;23.15;100.00;100839.69;2088614;28;20180;-66
2023/08/27 02:24:58;;;;;;;10.73;9.43;;;;;;;22.82;100.00;100800.88;2087898;28;20910;-67
2023/08/27 02:25:59;;;;;;;9.73;8.77;;;;;;;23.58;100.00;100926.63;2095334;28;20180;-66
2023/08/27 02:26:59;;;;;;;16.20;9.80;;;;;;;23.22;100.00;100875.97;2090507;28;20184;-66
2023/08/27 02:28:00;;;;;;;10.50;9.10;;;;;;;23.55;100.00;100924.81;2094069;28;20254;-66
2023/08/27 02:29:01;;;;;;;15.20;9.40;;;;;;;23.58;100.00;100928.69;2096925;28;20188;-66
2023/08/27 02:30:02;;;;;;;14.07;9.10;;;;;;;23.53;100.00;100924.56;2097153;28;20199;-66
2023/08/27 02:31:03;;;;;;;9.87;8.87;;;;;;;23.52;100.00;100945.66;2096248;28;20657;-66
2023/08/27 02:32:04;;;;;;;13.03;9.10;;;;;;;23.07;100.00;100861.28;2087785;28;20594;-66
2023/08/27 02:33:04;;;;;;;11.87;8.97;;;;;;;23.44;100.00;100921.25;2088078;28;20172;-66
2023/08/27 02:34:04;;;;;;;13.50;8.97;;;;;;;23.53;100.00;100930.22;2088303;28;20192;-66
2023/08/27 02:35:05;;;;;;;10.17;9.00;;;;;;;23.51;100.00;100927.16;2087937;28;20200;-66
2023/08/27 02:36:06;;;;;;;11.03;8.60;;;;;;;23.49;100.00;100921.22;2088514;28;20201;-66
2023/08/27 02:37:06;;;;;;;10.70;8.93;;;;;;;23.56;100.00;100934.09;2093182;28;20641;-66
2023/08/27 02:38:07;;;;;;;10.67;9.03;;;;;;;23.57;100.00;100933.56;2093467;28;20274;-66
2023/08/27 02:39:07;;;;;;;11.13;8.77;;;;;;;23.57;100.00;100939.25;2090746;28;20234;-67
2023/08/27 02:40:08;;;;;;;11.03;8.77;;;;;;;23.58;100.00;100934.34;2094504;28;20250;-66
2023/08/27 02:41:08;;;;;;;12.20;9.20;;;;;;;23.58;100.00;100931.50;2089082;28;20267;-67
2023/08/27 02:42:08;;;;;;;10.77;8.70;;;;;;;23.57;100.00;100933.56;2098465;28;20187;-66
2023/08/27 02:43:09;;;;;;;10.53;8.70;;;;;;;22.98;100.00;100842.50;2091220;28;20193;-66
2023/08/27 02:44:09;;;;;;;10.73;9.27;;;;;;;23.61;100.00;100931.25;2089945;28;20204;-66
2023/08/27 02:45:10;;;;;;;10.80;8.43;;;;;;;23.63;100.00;100936.38;2094726;28;20191;-66
2023/08/27 02:46:11;;;;;;;11.30;8.80;;;;;;;23.61;100.00;100931.25;2098143;28;20188;-66
2023/08/27 02:47:11;;;;;;;13.93;9.57;;;;;;;23.50;100.00;100939.72;2095608;28;20190;-66
2023/08/27 02:48:12;;;;;;;11.67;8.60;;;;;;;23.56;100.00;100939.75;2090500;28;20407;-66
2023/08/27 02:49:12;;;;;;;10.37;9.27;;;;;;;23.47;100.00;100949.25;2090021;28;20283;-66
2023/08/27 02:50:13;;;;;;;10.37;9.37;;;;;;;23.53;100.00;100944.38;2090397;28;20173;-66
2023/08/27 02:51:13;;;;;;;13.93;9.50;;;;;;;23.56;100.00;100940.53;2090344;28;20287;-67
2023/08/27 02:52:14;;;;;;;11.23;9.27;;;;;;;23.37;100.00;100910.41;2089844;28;20192;-66
2023/08/27 02:53:14;;;;;;;10.50;9.40;;;;;;;23.58;100.00;100937.94;2090024;28;20196;-66
2023/08/27 02:54:15;;;;;;;9.73;8.57;;;;;;;23.50;100.00;100933.31;2090094;28;20184;-66
2023/08/27 02:55:15;;;;;;;13.13;9.23;;;;;;;23.63;100.00;100942.81;2089386;28;20206;-66
2023/08/27 02:56:16;;;;;;;10.17;9.13;;;;;;;23.65;100.00;100956.47;2089879;28;20179;-66
2023/08/27 02:57:16;;;;;;;10.10;9.03;;;;;;;23.60;100.00;100949.50;2090147;28;20200;-66
2023/08/27 02:58:16;;;;;;;10.83;9.23;;;;;;;23.41;100.00;100928.69;2090513;28;20203;-66
2023/08/27 02:59:17;;;;;;;10.57;8.67;;;;;;;23.62;100.00;100960.31;2097621;28;20205;-66
2023/08/27 03:00:17;;;;;;;10.47;9.37;;;;;;;23.62;100.00;100963.94;2092266;28;20294;-66
2023/08/27 03:01:21;;;;;;;12.07;9.60;;;;;;;23.54;100.00;100942.31;2095192;28;20194;-66
2023/08/27 03:02:21;;;;;;;11.27;8.87;;;;;;;22.98;100.00;100867.94;2093689;28;20203;-66
2023/08/27 03:03:22;;;;;;;10.70;9.37;;;;;;;23.61;100.00;100956.72;2093437;28;20205;-66
2023/08/27 03:04:22;;;;;;;10.10;9.03;;;;;;;23.59;100.00;100959.28;2095798;28;20215;-66
2023/08/27 03:05:23;;;;;;;11.93;9.43;;;;;;;23.59;100.00;100958.53;2088791;28;20180;-66
2023/08/27 03:06:23;;;;;;;10.47;9.27;;;;;;;23.42;100.00;100949.25;2090300;28;20699;-66
2023/08/27 03:07:24;;;;;;;13.77;9.60;;;;;;;23.50;100.00;100958.78;2089979;28;20226;-66
2023/08/27 03:08:24;;;;;;;12.13;9.20;;;;;;;23.47;100.00;100977.53;2090771;28;20195;-66
2023/08/27 03:09:24;;;;;;;12.37;9.00;;;;;;;23.45;100.00;100959.53;2089522;28;20716;-66
2023/08/27 03:10:25;;;;;;;11.67;9.57;;;;;;;23.51;100.00;100963.94;2090170;28;20181;-66
2023/08/27 03:11:25;;;;;;;13.27;9.23;;;;;;;23.54;100.00;100964.97;2090153;28;20224;-66
2023/08/27 03:12:26;;;;;;;15.93;9.97;;;;;;;23.47;100.00;100952.09;2092010;28;20255;-66
2023/08/27 03:13:26;;;;;;;15.13;9.57;;;;;;;23.55;100.00;100970.06;2097131;28;20203;-66
2023/08/27 03:14:27;;;;;;;16.43;9.70;;;;;;;23.55;100.00;100969.31;2090090;28;20185;-66
2023/08/27 03:15:27;;;;;;;13.03;9.33;;;;;;;23.56;100.00;100963.16;2088792;28;20231;-66
2023/08/27 03:16:28;;;;;;;15.40;9.03;;;;;;;23.01;100.00;100878.25;2090174;28;20275;-66
2023/08/27 03:17:28;;;;;;;16.80;9.80;;;;;;;23.46;100.00;100958.25;2090165;28;20192;-66
2023/08/27 03:18:30;;;;;;;13.17;9.20;;;;;;;22.77;100.00;100857.41;2089697;28;20267;-66
2023/08/27 03:19:30;;;;;;;12.67;9.07;;;;;;;23.45;100.00;100962.38;2093660;28;20213;-66
2023/08/27 03:20:30;;;;;;;11.67;9.63;;;;;;;23.46;100.00;100964.69;2095724;28;20720;-67
2023/08/27 03:21:31;;;;;;;10.67;9.57;;;;;;;23.47;100.00;100963.41;2090010;28;20943;-66
2023/08/27 03:22:31;;;;;;;11.30;9.90;;;;;;;23.45;100.00;100982.16;2089427;28;20541;-66
2023/08/27 03:23:35;;;;;;;13.50;10.07;;;;;;;23.42;100.00;100963.38;2090051;28;20184;-66
2023/08/27 03:24:35;;;;;;;12.03;10.03;;;;;;;23.44;100.00;100966.50;2089870;28;20270;-66
2023/08/27 03:25:36;;;;;;;12.80;9.20;;;;;;;23.41;100.00;100959.81;2089108;28;20261;-67
2023/08/27 03:26:36;;;;;;;11.23;9.30;;;;;;;23.46;100.00;100969.56;2089607;28;20256;-66
2023/08/27 03:27:37;;;;;;;13.70;9.50;;;;;;;23.46;100.00;100978.84;2090157;28;20180;-66
2023/08/27 03:28:37;;;;;;;14.10;10.00;;;;;;;23.49;100.00;100977.03;2089985;28;20272;-66
2023/08/27 03:29:37;;;;;;;16.70;10.07;;;;;;;23.22;100.00;100946.66;2089857;28;20211;-66
2023/08/27 03:30:39;;;;;;;14.00;10.10;;;;;;;23.34;100.00;100982.91;2089984;28;20204;-66
2023/08/27 03:31:39;;;;;;;17.07;9.47;;;;;;;23.37;100.00;100984.72;2089671;28;20184;-66
2023/08/27 03:32:40;;;;;;;17.17;9.53;;;;;;;23.35;100.00;100984.47;2089500;28;20234;-66
2023/08/27 03:33:41;;;;;;;18.90;10.13;;;;;;;23.30;100.00;100973.16;2090016;28;20268;-66
2023/08/27 03:34:45;;;;;;;15.67;10.03;;;;;;;23.32;100.00;100984.72;2091491;28;20207;-66
2023/08/27 03:35:55;;;;;;;14.07;10.20;;;;;;;23.30;100.00;100993.72;2097808;28;20180;-66
2023/08/27 03:36:55;;;;;;;18.30;9.80;;;;;;;23.33;100.00;100989.09;2097850;28;20214;-66
2023/08/27 03:37:56;;;;;;;16.43;9.90;;;;;;;23.30;100.00;100987.28;2097442;28;20187;-67
2023/08/27 03:38:57;;;;;;;16.07;9.90;;;;;;;23.26;100.00;100992.41;2095619;28;20194;-66
2023/08/27 03:39:57;;;;;;;13.77;9.80;;;;;;;23.33;100.00;100994.75;2093518;28;20181;-66
2023/08/27 03:40:57;;;;;;;12.90;9.83;;;;;;;23.32;100.00;100991.16;2093244;28;20196;-66
2023/08/27 03:41:58;;;;;;;13.27;9.67;;;;;;;23.33;100.00;100994.75;2095584;28;20211;-67
2023/08/27 03:42:58;;;;;;;16.00;10.57;;;;;;;23.26;100.00;100998.06;2089812;28;20412;-66
2023/08/27 03:43:58;;;;;;;12.67;9.60;;;;;;;;;;2089839;28;20459;-67
2023/08/27 03:45:00;;;;;;;17.30;9.90;;;;;;;22.56;100.00;100904.06;2089576;28;20211;-66
2023/08/27 03:46:00;;;;;;;13.10;9.50;;;;;;;23.29;100.00;101000.66;2089592;28;20188;-66
2023/08/27 03:47:01;;;;;;;13.90;10.10;;;;;;;23.25;100.00;100994.50;2088574;28;20226;-66
2023/08/27 03:48:02;;;;;;;14.67;9.10;;;;;;;23.25;100.00;100994.50;2090002;28;20199;-66
2023/08/27 03:49:04;;;;;;;11.73;9.90;;;;;;;23.25;100.00;101002.19;2093555;28;20237;-66
2023/08/27 03:50:05;;;;;;;12.73;9.90;;;;;;;22.82;100.00;100936.50;2095343;28;20211;-66
2023/08/27 03:51:05;;;;;;;15.07;10.00;;;;;;;23.22;100.00;101008.84;2091365;28;20649;-66
2023/08/27 03:52:06;;;;;;;13.30;10.43;;;;;;;23.23;100.00;100999.88;2096860;28;20534;-66
2023/08/27 03:53:06;;;;;;;13.10;10.00;;;;;;;23.26;100.00;101006.56;2089976;28;20227;-66
2023/08/27 03:54:07;;;;;;;14.90;10.30;;;;;;;23.26;100.00;101006.56;2089658;28;20190;-66
2023/08/27 03:55:08;;;;;;;12.33;10.03;;;;;;;23.30;100.00;101005.03;2089489;28;20536;-66
2023/08/27 03:56:08;;;;;;;12.27;9.93;;;;;;;23.28;100.00;101006.84;2094908;28;20206;-66
2023/08/27 03:57:09;;;;;;;11.53;10.40;;;;;;;23.26;100.00;101004.50;2097448;28;20594;-66
2023/08/27 03:58:10;;;;;;;11.13;10.03;;;;;;;23.28;100.00;101015.31;2094837;28;20207;-66
2023/08/27 03:59:10;;;;;;;14.57;10.23;;;;;;;23.26;100.00;101010.16;2089478;28;20242;-66
2023/08/27 04:00:12;;;;;;;14.90;10.20;;;;;;;23.27;100.00;101013.75;2090874;28;20242;-66
2023/08/27 04:01:12;;;;;;;16.43;10.57;;;;;;;23.24;100.00;101021.19;2097407;28;20198;-66
2023/08/27 04:02:12;;;;;;;17.33;10.57;;;;;;;23.25;100.00;101019.16;2097898;28;20171;-66
2023/08/27 04:03:13;;;;;;;17.40;10.70;;;;;;;23.27;100.00;101014.53;2090766;28;20267;-66
2023/08/27 04:04:13;;;;;;;15.50;10.83;;;;;;;23.25;100.00;101014.28;2089766;28;20196;-66
2023/08/27 04:05:14;;;;;;;15.10;10.47;;;;;;;23.29;100.00;101020.44;2089261;28;20188;-66
2023/08/27 04:06:14;;;;;;;16.77;10.50;;;;;;;23.30;100.00;101018.41;2089338;28;20215;-66
2023/08/27 04:07:15;;;;;;;16.23;10.83;;;;;;;22.89;100.00;100958.66;2088900;28;20204;-66
2023/08/27 04:08:17;;;;;;;16.03;11.10;;;;;;;23.28;100.00;101018.91;2089526;28;20173;-66
2023/08/27 04:09:17;;;;;;;13.27;9.83;;;;;;;23.26;100.00;101013.00;2090000;28;20199;-67
2023/08/27 04:10:18;;;;;;;15.00;10.10;;;;;;;22.75;100.00;100930.56;2098366;28;20175;-66
2023/08/27 04:11:18;;;;;;;13.37;10.47;;;;;;;23.33;100.00;101020.22;2090319;28;20203;-66
2023/08/27 04:12:18;;;;;;;18.27;10.67;;;;;;;23.32;100.00;101010.94;2089064;28;20227;-66
2023/08/27 04:13:19;;;;;;;13.87;9.97;;;;;;;23.36;100.00;101024.84;2089671;28;20196;-66
2023/08/27 04:14:20;;;;;;;11.53;10.27;;;;;;;23.36;100.00;101019.19;2089604;28;20249;-66
2023/08/27 04:15:20;;;;;;;17.30;10.47;;;;;;;23.35;100.00;101026.91;2088560;28;20701;-66
2023/08/27 04:16:21;;;;;;;13.90;10.33;;;;;;;23.28;100.00;101027.38;2090877;28;20555;-66
2023/08/27 04:17:21;;;;;;;15.40;10.80;;;;;;;23.31;100.00;101034.84;2097710;28;20270;-66
2023/08/27 04:18:22;;;;;;;17.00;10.30;;;;;;;23.16;100.00;101003.16;2097566;28;20191;-66
2023/08/27 04:19:22;;;;;;;14.83;10.30;;;;;;;22.77;100.00;100947.81;2097790;28;20187;-66
2023/08/27 04:20:23;;;;;;;14.77;10.23;;;;;;;23.37;100.00;101032.03;2091112;28;20215;-66
2023/08/27 04:21:23;;;;;;;12.70;10.23;;;;;;;23.38;100.00;101044.91;2095260;28;20184;-66
2023/08/27 04:22:23;;;;;;;12.73;10.53;;;;;;;23.15;100.00;100998.81;2093540;28;20192;-66
2023/08/27 04:23:24;;;;;;;19.03;10.90;;;;;;;22.62;100.00;100927.47;2094588;28;20188;-66
2023/08/27 04:24:27;;;;;;;13.70;10.90;;;;;;;23.45;100.00;101030.25;2089410;28;20181;-66
2023/08/27 04:25:29;;;;;;;13.77;10.43;;;;;;;23.48;100.00;101041.31;2088874;28;20650;-66
2023/08/27 04:26:30;;;;;;;12.10;10.60;;;;;;;23.47;100.00;101039.00;2088792;28;20184;-66
2023/08/27 04:27:30;;;;;;;13.37;10.17;;;;;;;23.48;100.00;101041.31;2097279;28;20677;-66
2023/08/27 04:28:31;;;;;;;12.87;10.80;;;;;;;23.49;100.00;101042.09;2089647;28;20652;-66
2023/08/27 04:29:32;;;;;;;13.73;10.43;;;;;;;23.44;100.00;101040.03;2095828;28;20203;-66
2023/08/27 04:30:32;;;;;;;12.10;10.03;;;;;;;23.48;100.00;101046.97;2097911;28;20710;-66
2023/08/27 04:31:33;;;;;;;15.53;10.40;;;;;;;23.53;100.00;101037.72;2093378;28;20286;-66
2023/08/27 04:32:33;;;;;;;14.83;10.30;;;;;;;23.55;100.00;101042.88;2089325;28;20176;-66
2023/08/27 04:33:34;;;;;;;11.00;9.60;;;;;;;23.59;100.00;101032.84;2089286;28;20180;-66
2023/08/27 04:34:34;;;;;;;11.23;9.90;;;;;;;23.58;100.00;101036.97;2089337;28;20177;-66
2023/08/27 04:35:35;;;;;;;13.27;9.80;;;;;;;23.57;100.00;101043.13;2088996;28;20188;-66
2023/08/27 04:36:35;;;;;;;14.30;10.20;;;;;;;23.53;100.00;101026.41;2089465;28;20605;-66
2023/08/27 04:37:35;;;;;;;13.10;10.20;;;;;;;23.62;100.00;101043.16;2089494;28;20184;-66
2023/08/27 04:38:36;;;;;;;14.83;10.80;;;;;;;23.68;100.00;101038.25;2088810;28;20275;-66
2023/08/27 04:39:36;;;;;;;14.23;11.07;;;;;;;23.71;100.00;101042.91;2093697;28;20186;-66